Time;durP1;ratioP1;P1;durP2;ratioP2;P2;SDS_P1;SDS_P2;PMS_P1;PMS_P2;Temp;Humidity;BMP_temperature;BMP_pressure;BME280_temperature;BME280_humidity;BME280_pressure;Samples;Min_cycle;Max_cycle;Signal;HPM_P1;HPM_P2
2023/10/20 00:01:01;;;;;;;37.03;22.48;;;8.00;99.90;;;;;;5090024;28;20946;-78
2023/10/20 00:03:27;;;;;;;38.07;22.10;;;8.00;99.90;;;;;;5073287;28;20398;-78
2023/10/20 00:05:53;;;;;;;38.20;23.30;;;7.90;99.90;;;;;;5056287;28;20408;-78
2023/10/20 00:08:19;;;;;;;38.50;24.05;;;;;;;;;;5088382;28;20474;-78
2023/10/20 00:10:45;;;;;;;39.57;24.07;;;;;;;;;;5080220;28;20491;-77
2023/10/20 00:13:11;;;;;;;40.75;22.77;;;;;;;;;;5090326;28;20401;-77
2023/10/20 00:15:37;;;;;;;40.03;23.80;;;;;;;;;;5080253;28;20416;-77
2023/10/20 00:18:03;;;;;;;39.45;22.92;;;8.00;99.90;;;;;;5067032;28;20420;-77
2023/10/20 00:20:29;;;;;;;40.20;23.35;;;7.90;99.90;;;;;;5056742;28;20905;-77
2023/10/20 00:22:58;;;;;;;40.55;23.58;;;7.90;99.90;;;;;;5090422;28;20394;-77
2023/10/20 00:25:24;;;;;;;40.67;24.73;;;;;;;;;;5072466;28;20414;-77
2023/10/20 00:27:49;;;;;;;40.07;26.63;;;7.90;99.90;;;;;;5088435;28;20402;-77
2023/10/20 00:30:15;;;;;;;41.53;26.43;;;7.90;99.90;;;;;;5090040;28;20414;-77
2023/10/20 00:32:41;;;;;;;47.87;26.67;;;;;;;;;;5076434;28;20401;-77
2023/10/20 00:35:09;;;;;;;46.22;25.63;;;;;;;;;;5094142;28;20405;-78
2023/10/20 00:37:35;;;;;;;47.83;25.83;;;;;;;;;;5093828;28;20456;-78
2023/10/20 00:40:08;;;;;;;47.90;26.27;;;7.80;99.90;;;;;;5092667;28;20483;-77
2023/10/20 00:42:35;;;;;;;50.47;28.85;;;7.80;99.90;;;;;;5110255;28;20469;-77
2023/10/20 00:45:01;;;;;;;54.13;29.63;;;7.80;99.90;;;;;;5076812;28;20413;-77
2023/10/20 00:47:27;;;;;;;58.80;30.30;;;;;;;;;;5083892;28;20407;-77
2023/10/20 00:49:54;;;;;;;55.85;29.95;;;7.80;99.90;;;;;;5093283;28;20466;-77
2023/10/20 00:52:21;;;;;;;58.33;29.87;;;7.80;99.90;;;;;;5093463;28;20753;-77
2023/10/20 00:54:47;;;;;;;61.20;30.75;;;;;;;;;;5069120;28;20418;-77
2023/10/20 00:57:16;;;;;;;64.32;30.63;;;;;;;;;;5088314;28;20429;-77
2023/10/20 00:59:42;;;;;;;80.55;33.92;;;7.80;99.90;;;;;;5093237;28;20758;-77
2023/10/20 01:02:09;;;;;;;78.30;35.60;;;;;;;;;;5077486;28;20408;-78
2023/10/20 01:04:34;;;;;;;80.77;33.40;;;7.80;99.90;;;;;;5089463;28;20897;-78
2023/10/20 01:07:00;;;;;;;89.50;35.92;;;7.80;99.90;;;;;;5093313;28;20451;-78
2023/10/20 01:09:26;;;;;;;92.87;36.20;;;7.70;99.90;;;;;;5076259;28;20456;-78
2023/10/20 01:11:53;;;;;;;95.35;37.83;;;7.70;99.90;;;;;;5093253;28;20402;-78
2023/10/20 01:14:19;;;;;;;91.10;37.45;;;;;;;;;;5079349;28;20418;-77
2023/10/20 01:16:46;;;;;;;95.63;38.50;;;;;;;;;;5073726;28;20410;-77
2023/10/20 01:19:12;;;;;;;96.53;38.33;;;7.70;99.90;;;;;;5092669;28;20422;-77
2023/10/20 01:21:38;;;;;;;88.72;38.75;;;;;;;;;;5074755;28;20412;-77
2023/10/20 01:24:04;;;;;;;104.70;41.27;;;;;;;;;;5090771;28;20877;-77
2023/10/20 01:26:31;;;;;;;103.35;40.58;;;8.00;99.90;;;;;;5092198;28;20398;-77
2023/10/20 01:28:57;;;;;;;92.03;39.22;;;;;;;;;;5092127;28;20406;-77
2023/10/20 01:31:23;;;;;;;100.03;38.33;;;;;;;;;;5088907;28;20761;-77
2023/10/20 01:33:50;;;;;;;100.07;39.60;;;;;;;;;;5089728;28;20429;-77
2023/10/20 01:36:15;;;;;;;104.78;38.83;;;7.80;99.90;;;;;;5091794;28;20402;-77
2023/10/20 01:38:42;;;;;;;104.57;40.17;;;;;;;;;;5092067;28;20441;-77
2023/10/20 01:41:08;;;;;;;102.35;41.88;;;;;;;;;;5092935;28;20765;-77
2023/10/20 01:43:34;;;;;;;113.22;39.78;;;;;;;;;;5082079;28;20407;-77
2023/10/20 01:46:01;;;;;;;103.77;39.07;;;;;;;;;;5085805;28;20416;-77
2023/10/20 01:48:27;;;;;;;103.38;41.08;;;;;;;;;;5091786;28;20478;-77
2023/10/20 01:50:53;;;;;;;99.32;37.38;;;7.80;99.90;;;;;;5074864;28;20455;-78
2023/10/20 01:53:19;;;;;;;108.43;40.80;;;7.70;99.90;;;;;;5092129;28;20435;-77
2023/10/20 01:55:49;;;;;;;112.20;42.33;;;;;;;;;;5069393;28;20437;-77
2023/10/20 01:58:18;;;;;;;116.13;40.65;;;;;;;;;;5091474;28;20947;-77
2023/10/20 02:00:44;;;;;;;116.32;42.13;;;;;;;;;;5074573;28;20433;-77
2023/10/20 02:03:10;;;;;;;116.57;42.38;;;7.60;99.90;;;;;;5074191;28;20440;-77
2023/10/20 02:05:37;;;;;;;107.80;42.67;;;;;;;;;;5072234;28;20404;-77
2023/10/20 02:08:03;;;;;;;98.65;40.05;;;;;;;;;;5090953;28;20405;-77
2023/10/20 02:10:31;;;;;;;108.05;40.30;;;7.70;99.90;;;;;;5091280;28;20402;-77
2023/10/20 02:12:57;;;;;;;103.27;38.63;;;;;;;;;;5085945;28;20442;-77
2023/10/20 02:15:22;;;;;;;107.88;41.78;;;7.80;99.90;;;;;;5051634;28;20466;-77
2023/10/20 02:17:48;;;;;;;116.60;44.22;;;7.80;99.90;;;;;;5072896;28;20414;-77
2023/10/20 02:20:15;;;;;;;115.00;46.03;;;7.80;99.90;;;;;;5074497;28;20410;-77
2023/10/20 02:22:43;;;;;;;108.57;42.88;;;;;;;;;;5041078;28;20414;-77
2023/10/20 02:25:10;;;;;;;112.07;42.50;;;;;;;;;;5065279;28;20455;-77
2023/10/20 02:27:39;;;;;;;118.07;46.27;;;7.80;99.90;;;;;;5066524;28;20433;-77
2023/10/20 02:30:06;;;;;;;118.85;43.05;;;;;;;;;;5072754;28;20414;-78
2023/10/20 02:32:32;;;;;;;108.50;41.15;;;;;;;;;;5073192;28;20487;-77
2023/10/20 02:34:58;;;;;;;102.78;41.50;;;;;;;;;;5072560;28;20481;-77
2023/10/20 02:37:24;;;;;;;112.75;44.47;;;7.90;99.90;;;;;;5072196;28;20422;-77
2023/10/20 02:39:50;;;;;;;105.63;42.50;;;;;;;;;;5067096;28;20455;-76
2023/10/20 02:42:16;;;;;;;116.22;44.22;;;7.80;99.90;;;;;;5073354;28;20442;-77
2023/10/20 02:44:42;;;;;;;99.43;39.80;;;;;;;;;;5072051;28;20472;-77
2023/10/20 02:47:08;;;;;;;95.20;42.53;;;;;;;;;;5090037;28;20485;-77
2023/10/20 02:49:35;;;;;;;97.25;40.70;;;;;;;;;;5089080;28;20439;-77
2023/10/20 02:52:01;;;;;;;96.45;39.53;;;7.80;99.90;;;;;;5090928;28;20905;-77
2023/10/20 02:54:27;;;;;;;98.32;39.92;;;;;;;;;;5072974;28;20402;-77
2023/10/20 02:56:55;;;;;;;104.20;40.25;;;7.70;99.90;;;;;;5073859;28;20567;-77
2023/10/20 02:59:23;;;;;;;94.22;38.78;;;;;;;;;;5089582;28;20406;-77
2023/10/20 03:01:49;;;;;;;95.10;41.42;;;;;;;;;;5090883;28;20401;-77
2023/10/20 03:04:15;;;;;;;98.50;39.97;;;;;;;;;;5088906;28;20429;-77
2023/10/20 03:06:41;;;;;;;101.23;38.67;;;;;;;;;;5073634;28;20435;-77
2023/10/20 03:09:07;;;;;;;90.32;39.28;;;;;;;;;;5091818;28;20782;-77
2023/10/20 03:11:34;;;;;;;81.72;36.63;;;;;;;;;;5090242;28;20563;-77
2023/10/20 03:14:00;;;;;;;85.50;36.75;;;;;;;;;;5062973;28;20892;-77
2023/10/20 03:16:26;;;;;;;94.47;38.60;;;7.70;99.90;;;;;;5090101;28;20766;-77
2023/10/20 03:18:53;;;;;;;87.10;39.95;;;;;;;;;;5074526;28;20421;-77
2023/10/20 03:21:21;;;;;;;78.30;38.58;;;;;;;;;;5090628;28;20961;-77
2023/10/20 03:23:46;;;;;;;70.32;35.38;;;7.80;99.90;;;;;;5093489;28;20401;-78
2023/10/20 03:26:13;;;;;;;78.13;37.03;;;;;;;;;;5094112;28;20479;-77
2023/10/20 03:28:39;;;;;;;78.95;34.75;;;7.90;99.90;;;;;;5093205;28;20441;-77
2023/10/20 03:31:05;;;;;;;83.70;37.10;;;7.80;99.90;;;;;;5076771;28;20428;-78
2023/10/20 03:33:31;;;;;;;79.88;35.80;;;7.90;99.90;;;;;;5075529;28;20435;-78
2023/10/20 03:36:04;;;;;;;68.07;34.47;;;;;;;;;;5080365;28;20428;-77
2023/10/20 03:38:30;;;;;;;71.75;36.75;;;;;;;;;;5089556;28;20424;-78
2023/10/20 03:41:10;;;;;;;75.53;36.85;;;;;;;;;;5073845;28;20401;-77
2023/10/20 03:43:36;;;;;;;74.97;34.60;;;;;;;;;;5083783;28;20404;-77
2023/10/20 03:46:04;;;;;;;71.07;33.88;;;7.80;99.90;;;;;;5088223;28;20432;-78
2023/10/20 03:48:31;;;;;;;65.18;33.03;;;;;;;;;;5070476;28;20901;-78
2023/10/20 03:50:58;;;;;;;63.67;33.67;;;;;;;;;;5087241;28;20413;-78
2023/10/20 03:53:39;;;;;;;62.10;32.70;;;7.70;99.90;;;;;;5069315;28;20404;-77
2023/10/20 03:56:07;;;;;;;60.33;30.10;;;;;;;;;;5061787;28;20764;-78
2023/10/20 03:58:35;;;;;;;64.63;32.28;;;;;;;;;;5093333;28;20423;-77
2023/10/20 04:01:02;;;;;;;67.03;33.53;;;7.70;99.90;;;;;;5093122;28;20405;-77
2023/10/20 04:03:31;;;;;;;72.93;39.97;;;7.60;99.90;;;;;;5084427;28;20409;-77
2023/10/20 04:05:57;;;;;;;67.43;35.58;;;;;;;;;;5065645;28;20411;-77
2023/10/20 04:08:24;;;;;;;63.30;33.05;;;7.80;99.90;;;;;;5076814;28;20760;-78
2023/10/20 04:11:00;;;;;;;69.80;36.45;;;7.70;99.90;;;;;;5095880;28;20426;-78
2023/10/20 04:13:27;;;;;;;69.55;35.42;;;;;;;;;;5097584;28;20545;-77
2023/10/20 04:15:54;;;;;;;66.10;35.78;;;;;;;;;;5095241;28;20416;-77
2023/10/20 04:18:20;;;;;;;62.67;36.03;;;;;;;;;;5095795;28;20419;-78
2023/10/20 04:20:48;;;;;;;64.68;34.75;;;7.60;99.90;;;;;;5076743;28;20427;-76
2023/10/20 04:23:16;;;;;;;64.43;33.92;;;;;;;;;;5082927;28;20404;-77
2023/10/20 04:25:55;;;;;;;56.88;32.00;;;;;;;;;;5093262;28;20493;-77
2023/10/20 04:28:42;;;;;;;57.43;31.77;;;7.60;99.90;;;;;;5096937;28;22128;-77
2023/10/20 04:52:55;;;;;;;56.33;32.00;;;;;;;;;;5094066;28;20448;-77
2023/10/20 05:00:46;;;;;;;47.38;27.27;;;7.60;99.90;;;;;;5048161;28;20941;-77
2023/10/20 05:03:16;;;;;;;55.20;29.35;;;;;;;;;;5059959;28;20489;-78
2023/10/20 05:06:02;;;;;;;64.03;27.75;;;;;;;;;;5063925;28;20410;-77
2023/10/20 05:08:28;;;;;;;49.67;27.55;;;7.60;99.90;;;;;;5090796;28;20825;-78
2023/10/20 05:10:54;;;;;;;58.23;25.83;;;;;;;;;;5094873;28;20400;-78
2023/10/20 05:13:20;;;;;;;52.25;26.65;;;7.50;99.90;;;;;;5094715;28;20408;-78
2023/10/20 05:15:48;;;;;;;38.78;26.65;;;;;;;;;;5095339;28;20416;-78
2023/10/20 05:18:17;;;;;;;41.55;24.77;;;;;;;;;;5094623;28;20818;-78
2023/10/20 05:20:45;;;;;;;39.42;22.52;;;;;;;;;;5086953;28;20505;-78
2023/10/20 05:23:11;;;;;;;48.17;25.80;;;;;;;;;;5060161;28;20428;-78
2023/10/20 05:25:38;;;;;;;37.50;23.40;;;;;;;;;;5092882;28;20923;-77
2023/10/20 05:28:07;;;;;;;45.55;24.40;;;;;;;;;;5076699;28;20447;-77
2023/10/20 05:30:33;;;;;;;84.78;23.92;;;;;;;;;;5073882;28;20409;-78
2023/10/20 05:32:59;;;;;;;45.50;20.30;;;;;;;;;;5076009;28;20493;-78
2023/10/20 05:35:25;;;;;;;39.63;22.30;;;;;;;;;;5068033;28;20436;-78
2023/10/20 05:37:51;;;;;;;45.28;20.30;;;;;;;;;;5095072;28;20423;-78
2023/10/20 05:40:17;;;;;;;72.50;23.52;;;;;;;;;;5076952;28;20407;-78
2023/10/20 05:42:43;;;;;;;35.50;20.70;;;;;;;;;;5078939;28;20412;-77
2023/10/20 05:45:09;;;;;;;33.83;19.15;;;;;;;;;;5063468;28;20409;-77
2023/10/20 05:47:38;;;;;;;25.92;17.42;;;;;;;;;;5092348;28;20733;-77
2023/10/20 05:50:05;;;;;;;34.63;19.05;;;;;;;;;;5068718;28;20531;-77
2023/10/20 05:52:33;;;;;;;30.00;17.42;;;;;;;;;;5088707;28;20420;-78
2023/10/20 05:55:00;;;;;;;22.50;17.05;;;;;;;;;;5096024;28;20763;-78
2023/10/20 05:57:27;;;;;;;25.00;16.52;;;;;;;;;;5084755;28;20418;-78
2023/10/20 05:59:54;;;;;;;20.38;16.58;;;;;;;;;;5073308;28;20411;-78
2023/10/20 06:02:20;;;;;;;23.45;15.73;;;;;;;;;;5089552;28;20491;-78
2023/10/20 06:04:46;;;;;;;19.63;15.68;;;;;;;;;;5092314;28;20398;-78
2023/10/20 06:07:12;;;;;;;21.83;14.77;;;;;;;;;;5086902;28;20428;-78
2023/10/20 06:09:39;;;;;;;21.52;15.30;;;;;;;;;;5078288;28;20409;-78
2023/10/20 06:12:07;;;;;;;21.30;15.00;;;;;;;;;;5075844;28;20899;-79
2023/10/20 06:14:36;;;;;;;19.38;15.30;;;;;;;;;;5083229;28;20472;-78
2023/10/20 06:17:02;;;;;;;19.83;13.52;;;;;;;;;;5075200;28;20392;-73
2023/10/20 06:19:28;;;;;;;19.02;13.25;;;;;;;;;;5089057;28;20430;-74
2023/10/20 06:21:55;;;;;;;17.20;12.93;;;;;;;;;;5092699;28;20420;-74
2023/10/20 06:24:22;;;;;;;16.25;13.20;;;;;;;;;;5075805;28;20479;-74
2023/10/20 06:26:48;;;;;;;17.70;12.75;;;;;;;;;;5076651;28;20480;-74
2023/10/20 06:34:34;;;;;;;16.15;11.32;;;;;;;;;;5089512;28;20952;-74
2023/10/20 06:37:12;;;;;;;15.82;11.57;;;;;;;;;;5091771;28;20412;-74
2023/10/20 06:39:38;;;;;;;15.50;11.57;;;;;;;;;;5076862;28;20906;-74
2023/10/20 06:42:09;;;;;;;15.75;11.20;;;;;;;;;;5087840;28;20435;-75
2023/10/20 06:44:35;;;;;;;13.77;10.55;;;;;;;;;;5070777;28;20397;-75
2023/10/20 06:47:01;;;;;;;16.00;11.07;;;;;;;;;;5094285;28;20404;-74
2023/10/20 06:49:28;;;;;;;15.13;10.75;;;;;;;;;;5074275;28;20408;-74
2023/10/20 06:51:54;;;;;;;14.10;10.60;;;;;;;;;;5064360;28;20435;-74
2023/10/20 06:54:20;;;;;;;15.02;10.07;;;;;;;;;;5053328;28;20469;-75
2023/10/20 06:56:46;;;;;;;12.57;9.43;;;;;;;;;;5094765;28;20397;-74
2023/10/20 06:59:16;;;;;;;13.93;10.00;;;;;;;;;;5095883;28;20851;-74
2023/10/20 07:01:43;;;;;;;13.73;9.93;;;;;;;;;;5096595;28;20412;-74
2023/10/20 07:04:09;;;;;;;11.83;9.07;;;;;;;;;;5094917;28;20440;-75
2023/10/20 07:06:36;;;;;;;15.05;9.70;;;;;;;;;;5095534;28;20412;-75
2023/10/20 07:09:11;;;;;;;12.27;8.75;;;;;;;;;;5060021;28;20423;-74
2023/10/20 07:11:38;;;;;;;12.65;8.68;;;;;;;;;;5057278;28;20886;-75
2023/10/20 07:14:05;;;;;;;12.80;9.03;;;;;;;;;;5062873;28;20960;-74
2023/10/20 07:16:31;;;;;;;12.88;8.50;;;;;;;;;;5053419;28;20416;-74
2023/10/20 07:18:57;;;;;;;10.73;7.97;;;;;;;;;;5073630;28;20412;-74
2023/10/20 07:21:24;;;;;;;10.40;7.65;;;;;;;;;;5082570;28;20439;-74
2023/10/20 07:23:50;;;;;;;12.02;8.00;;;;;;;;;;5041434;28;20437;-73
2023/10/20 07:26:17;;;;;;;9.75;7.20;;;;;;;;;;5073622;28;20406;-75
2023/10/20 07:28:44;;;;;;;9.07;7.20;;;;;;;;;;5077579;28;20504;-74
2023/10/20 07:31:14;;;;;;;8.13;6.65;;;7.60;99.90;;;;;;5071172;28;20408;-76
2023/10/20 07:33:40;;;;;;;9.30;6.30;;;;;;;;;;5082224;28;20807;-74
2023/10/20 07:36:07;;;;;;;8.52;6.10;;;;;;;;;;5077392;28;20405;-74
2023/10/20 07:38:33;;;;;;;7.93;5.72;;;;;;;;;;5087051;28;20943;-74
2023/10/20 07:41:10;;;;;;;8.27;5.70;;;;;;;;;;5093665;28;20400;-74
2023/10/20 07:43:36;;;;;;;7.30;5.43;;;;;;;;;;5076497;28;20410;-74
2023/10/20 07:46:03;;;;;;;7.45;5.28;;;;;;;;;;5093131;28;20407;-74
2023/10/20 07:48:32;;;;;;;8.07;5.30;;;;;;;;;;5077418;28;20416;-74
2023/10/20 07:50:59;;;;;;;7.68;5.45;;;;;;;;;;5073378;28;20894;-74
2023/10/20 07:53:25;;;;;;;7.75;5.35;;;;;;;;;;5058879;28;20481;-74
2023/10/20 07:55:51;;;;;;;7.00;5.07;;;;;;;;;;5092757;28;20444;-74
2023/10/20 07:58:18;;;;;;;8.65;5.10;;;;;;;;;;5092714;28;20412;-74
2023/10/20 08:00:44;;;;;;;7.43;5.03;;;;;;;;;;5093870;28;20450;-74
2023/10/20 08:03:11;;;;;;;8.57;5.25;;;;;;;;;;5076771;28;20439;-74
2023/10/20 08:05:37;;;;;;;7.82;5.00;;;;;;;;;;5076704;28;20442;-73
2023/10/20 08:08:04;;;;;;;7.72;4.97;;;;;;;;;;5092732;28;20404;-73
2023/10/20 08:10:30;;;;;;;8.13;4.80;;;;;;;;;;5078599;28;20420;-73
2023/10/20 08:12:56;;;;;;;7.47;4.93;;;;;;;;;;5072465;28;21127;-75
2023/10/20 08:15:23;;;;;;;8.63;5.70;;;;;;;;;;5076594;28;20404;-75
2023/10/20 08:17:50;;;;;;;9.57;5.75;;;7.30;99.90;;;;;;5091506;28;20511;-75
2023/10/20 08:20:17;;;;;;;8.15;4.13;;;;;;;;;;5071256;28;20814;-74
2023/10/20 08:22:43;;;;;;;6.05;4.05;;;;;;;;;;5103906;28;20427;-73
2023/10/20 08:25:09;;;;;;;5.97;4.27;;;;;;;;;;5059844;28;20884;-75
2023/10/20 08:27:36;;;;;;;7.35;4.65;;;;;;;;;;5073318;28;20424;-74
2023/10/20 08:30:02;;;;;;;5.70;3.90;;;;;;;;;;5080045;28;20497;-74
2023/10/20 08:32:29;;;;;;;5.33;3.80;;;;;;;;;;5076287;28;20404;-74
2023/10/20 08:34:55;;;;;;;6.07;3.90;;;;;;;;;;5071161;28;20454;-74
2023/10/20 08:37:21;;;;;;;4.97;3.70;;;;;;;;;;5092021;28;20507;-74
2023/10/20 08:39:47;;;;;;;6.20;3.73;;;;;;;;;;5081108;28;20416;-74
2023/10/20 08:42:21;;;;;;;6.68;4.10;;;;;;;;;;5074973;28;20865;-74
2023/10/20 08:44:49;;;;;;;6.00;4.00;;;;;;;;;;5065136;28;20766;-74
2023/10/20 08:47:16;;;;;;;6.35;4.00;;;7.30;99.90;;;;;;5088386;28;20884;-75
2023/10/20 08:49:42;;;;;;;6.00;3.63;;;;;;;;;;5072097;28;20468;-75
2023/10/20 08:52:11;;;;;;;6.18;3.78;;;;;;;;;;5070775;28;20402;-74
2023/10/20 08:54:37;;;;;;;6.38;3.80;;;;;;;;;;5073846;28;20416;-75
2023/10/20 08:57:04;;;;;;;8.88;4.20;;;7.40;99.90;;;;;;5095425;28;20969;-75
2023/10/20 08:59:31;;;;;;;5.93;3.83;;;;;;;;;;5069468;28;20487;-76
2023/10/20 09:01:57;;;;;;;6.75;3.80;;;;;;;;;;5095305;28;20497;-75
2023/10/20 09:04:25;;;;;;;5.90;4.32;;;7.30;99.90;;;;;;5073657;28;20952;-75
2023/10/20 09:06:52;;;;;;;5.68;3.90;;;;;;;;;;5078868;28;20408;-76
2023/10/20 09:09:19;;;;;;;6.07;4.07;;;;;;;;;;5094269;28;20416;-75
2023/10/20 09:11:45;;;;;;;5.95;3.50;;;7.30;99.90;;;;;;5096097;28;20404;-76
2023/10/20 09:14:12;;;;;;;5.28;3.30;;;;;;;;;;5093423;28;20491;-75
2023/10/20 09:16:39;;;;;;;5.50;3.30;;;;;;;;;;5083804;28;20414;-75
2023/10/20 09:19:06;;;;;;;5.65;3.55;;;;;;;;;;5112658;28;20486;-78
2023/10/20 09:21:32;;;;;;;4.68;3.20;;;;;;;;;;5078678;28;20890;-76
2023/10/20 09:24:07;;;;;;;4.97;3.17;;;7.30;99.90;;;;;;5092024;28;20430;-77
2023/10/20 09:26:35;;;;;;;4.65;2.90;;;7.20;99.90;;;;;;5059790;28;20422;-76
2023/10/20 09:29:05;;;;;;;5.70;2.90;;;7.30;99.90;;;;;;5075053;28;20444;-75
2023/10/20 09:31:31;;;;;;;5.25;2.90;;;;;;;;;;5076286;28;20398;-75
2023/10/20 09:33:58;;;;;;;3.88;2.80;;;;;;;;;;5098245;28;20401;-76
2023/10/20 09:36:24;;;;;;;4.40;2.85;;;;;;;;;;5094983;28;20404;-75
2023/10/20 09:38:52;;;;;;;3.92;2.50;;;;;;;;;;5076310;28;20817;-75
2023/10/20 09:41:20;;;;;;;4.07;2.60;;;;;;;;;;5071778;28;20529;-76
2023/10/20 09:43:52;;;;;;;4.80;2.55;;;;;;;;;;5075471;28;20431;-76
2023/10/20 09:46:24;;;;;;;3.55;2.45;;;;;;;;;;5075510;28;20409;-76
2023/10/20 09:48:52;;;;;;;4.40;2.17;;;;;;;;;;5094618;28;20752;-75
2023/10/20 09:51:22;;;;;;;3.45;2.38;;;;;;;;;;5089903;28;20404;-75
2023/10/20 09:53:49;;;;;;;5.03;2.47;;;;;;;;;;5068280;28;20465;-75
2023/10/20 09:56:17;;;;;;;5.80;2.63;;;7.20;99.90;;;;;;5088502;27;20396;-75
2023/10/20 09:58:43;;;;;;;3.85;2.30;;;;;;;;;;5070543;28;21029;-76
2023/10/20 10:01:13;;;;;;;3.83;2.13;;;;;;;;;;5066334;28;20404;-75
2023/10/20 10:03:42;;;;;;;3.85;2.45;;;;;;;;;;5066723;28;20793;-75
2023/10/20 10:06:10;;;;;;;3.77;2.50;;;;;;;;;;5074829;27;20412;-76
2023/10/20 10:08:40;;;;;;;4.10;2.60;;;;;;;;;;5096491;28;20404;-75
2023/10/20 10:11:26;;;;;;;4.00;2.28;;;;;;;;;;5092322;28;20420;-75
2023/10/20 10:13:54;;;;;;;3.75;2.22;;;;;;;;;;5085862;28;20428;-75
2023/10/20 10:16:21;;;;;;;3.58;2.20;;;;;;;;;;5092131;27;20963;-76
2023/10/20 10:18:47;;;;;;;4.70;2.10;;;;;;;;;;5078598;28;20938;-76
2023/10/20 10:21:26;;;;;;;2.70;1.80;;;;;;;;;;5071586;28;20424;-76
2023/10/20 10:24:22;;;;;;;3.75;1.77;;;7.10;99.90;;;;;;5065883;28;20415;-76
2023/10/20 10:26:56;;;;;;;3.08;1.63;;;;;;;;;;5073524;28;20404;-76
2023/10/20 10:29:41;;;;;;;4.67;2.00;;;;;;;;;;5088478;28;20897;-82
2023/10/20 10:32:12;;;;;;;4.43;2.28;;;6.80;99.90;;;;;;5085953;28;20400;-82
2023/10/20 10:34:42;;;;;;;5.70;2.27;;;;;;;;;;5095901;27;20431;-82
2023/10/20 10:37:08;;;;;;;3.30;2.10;;;;;;;;;;5095835;28;20486;-81
2023/10/20 10:39:34;;;;;;;4.13;1.95;;;;;;;;;;5095811;28;20789;-82
2023/10/20 10:42:04;;;;;;;3.15;1.80;;;;;;;;;;5081887;28;20396;-81
2023/10/20 10:44:37;;;;;;;3.10;1.80;;;;;;;;;;5094627;28;20400;-82
2023/10/20 10:47:04;;;;;;;3.90;1.70;;;;;;;;;;5096589;27;20396;-82
2023/10/20 10:49:33;;;;;;;2.78;1.75;;;;;;;;;;5086783;28;20755;-82
2023/10/20 10:52:04;;;;;;;2.80;1.42;;;6.80;99.90;;;;;;5095754;28;20432;-82
2023/10/20 10:54:34;;;;;;;2.05;1.40;;;;;;;;;;5077809;28;20410;-83
2023/10/20 10:57:01;;;;;;;3.28;1.20;;;;;;;;;;5060732;27;20892;-84
2023/10/20 10:59:27;;;;;;;3.35;1.33;;;;;;;;;;5082787;28;20424;-84
2023/10/20 11:01:54;;;;;;;3.38;2.17;;;;;;;;;;5094949;27;20422;-83
2023/10/20 11:04:20;;;;;;;2.67;1.40;;;;;;;;;;5095964;28;20411;-78
2023/10/20 11:06:46;;;;;;;3.60;1.70;;;;;;;;;;5055441;28;20414;-78
2023/10/20 11:09:19;;;;;;;2.75;1.38;;;;;;;;;;5088285;28;20490;-78
2023/10/20 11:11:47;;;;;;;1.67;1.20;;;;;;;;;;5088811;28;20451;-78
2023/10/20 11:14:17;;;;;;;4.50;2.45;;;;;;;;;;5087605;28;20412;-77
2023/10/20 11:16:43;;;;;;;1.70;1.10;;;;;;;;;;5068810;28;20416;-78
2023/10/20 11:19:11;;;;;;;1.38;0.95;;;;;;;;;;5088637;28;20427;-77
2023/10/20 11:21:45;;;;;;;1.98;1.30;;;;;;;;;;5092934;28;20538;-78
2023/10/20 11:24:11;;;;;;;2.13;1.35;;;;;;;;;;5079079;28;20410;-78
2023/10/20 11:26:37;;;;;;;2.55;1.60;;;;;;;;;;5096778;28;20400;-77
2023/10/20 11:29:04;;;;;;;2.60;1.43;;;;;;;;;;5084325;28;20862;-78
2023/10/20 11:31:30;;;;;;;2.67;1.80;;;;;;;;;;5085979;28;20424;-77
2023/10/20 11:33:56;;;;;;;1.42;1.10;;;;;;;;;;5073777;28;20412;-77
2023/10/20 11:36:22;;;;;;;1.67;1.10;;;;;;;;;;5056297;28;20810;-76
2023/10/20 11:38:48;;;;;;;1.60;1.00;;;;;;;;;;5073839;28;20417;-75
2023/10/20 11:41:14;;;;;;;2.22;1.10;;;;;;;;;;5085180;28;20427;-76
2023/10/20 11:43:40;;;;;;;1.50;0.90;;;;;;;;;;5084754;28;20430;-76
2023/10/20 11:46:10;;;;;;;1.73;1.20;;;;;;;;;;5091182;28;20773;-76
2023/10/20 11:48:36;;;;;;;2.50;1.30;;;;;;;;;;5081593;28;20450;-76
2023/10/20 11:51:02;;;;;;;2.10;1.30;;;;;;;;;;5065435;28;20438;-77
2023/10/20 11:53:28;;;;;;;1.90;0.98;;;;;;;;;;5066897;28;20465;-76
2023/10/20 11:55:54;;;;;;;1.25;0.90;;;;;;;;;;5086471;28;20492;-75
2023/10/20 11:58:20;;;;;;;1.60;1.00;;;;;;;;;;5093637;28;20836;-76
2023/10/20 12:00:46;;;;;;;1.35;0.98;;;;;;;;;;5092517;28;20420;-75
2023/10/20 12:03:12;;;;;;;1.25;0.80;;;;;;;;;;5073387;28;20925;-76
2023/10/20 12:05:39;;;;;;;1.33;0.88;;;;;;;;;;5086317;28;20494;-75
2023/10/20 12:08:06;;;;;;;1.17;0.90;;;;;;;;;;5087080;28;20400;-75
2023/10/20 12:10:32;;;;;;;1.70;0.90;;;;;;;;;;5069003;28;20962;-75
2023/10/20 12:13:04;;;;;;;1.38;1.10;;;;;;;;;;5075231;28;20415;-75
2023/10/20 12:15:30;;;;;;;2.55;1.25;;;;;;;;;;5077442;28;20425;-76
2023/10/20 12:17:57;;;;;;;1.35;0.90;;;;;;;;;;5057863;28;20419;-77
2023/10/20 12:20:24;;;;;;;3.58;1.50;;;;;;;;;;5055931;28;20426;-76
2023/10/20 12:22:58;;;;;;;3.10;1.50;;;;;;;;;;5087839;28;20447;-76
2023/10/20 12:25:25;;;;;;;2.03;1.30;;;;;;;;;;5063828;28;20437;-76
2023/10/20 12:27:51;;;;;;;1.70;1.00;;;;;;;;;;5075046;28;20408;-76
2023/10/20 12:30:17;;;;;;;2.97;1.23;;;;;;;;;;5060396;28;20584;-75
2023/10/20 12:33:57;;;;;;;2.83;1.67;;;;;;;;;;5109430;27;20877;-77
2023/10/20 12:36:24;;;;;;;2.42;1.65;;;;;;;;;;5072068;28;20505;-77
2023/10/20 12:40:39;;;;;;;3.10;1.85;;;;;;;;;;5120196;27;20365;-76
2023/10/20 12:43:09;;;;;;;2.00;1.27;;;;;;;;;;5134213;27;20405;-77
2023/10/20 12:45:38;;;;;;;3.70;1.63;;;;;;;;;;5134039;27;20403;-76
2023/10/20 12:48:05;;;;;;;2.45;1.20;;;;;;;;;;5104779;28;20453;-75
2023/10/20 12:50:32;;;;;;;1.75;1.20;;;;;;;;;;5102588;28;20783;-76
2023/10/20 12:52:59;;;;;;;1.85;1.38;;;;;;;;;;5154134;27;20817;-77
2023/10/20 12:55:26;;;;;;;1.33;1.02;;;;;;;;;;5131774;27;20419;-76
2023/10/20 12:57:53;;;;;;;3.40;1.27;;;;;;;;;;5121136;27;20487;-76
2023/10/20 13:00:20;;;;;;;1.58;1.00;;;;;;;;;;5135385;27;20422;-76
2023/10/20 13:02:52;;;;;;;1.67;1.02;;;;;;;;;;5101887;28;20409;-77
2023/10/20 13:05:19;;;;;;;1.20;0.90;;;;;;;;;;5112310;28;20397;-76
2023/10/20 13:07:45;;;;;;;1.42;0.90;;;;;;;;;;5110621;28;20428;-76
2023/10/20 13:10:11;;;;;;;1.20;0.82;;;;;;;;;;5113325;27;20417;-75
2023/10/20 13:12:37;;;;;;;1.38;0.82;;;;;;;;;;5102611;27;20428;-75
2023/10/20 13:15:04;;;;;;;1.35;0.95;;;;;;;;;;5116907;27;20438;-75
2023/10/20 13:17:30;;;;;;;1.38;0.85;;;;;;;;;;5156438;27;20401;-75
2023/10/20 13:19:57;;;;;;;0.93;0.80;;;;;;;;;;5112833;27;21158;-75
2023/10/20 13:22:24;;;;;;;1.20;0.90;;;;;;;;;;5092732;27;20408;-76
2023/10/20 13:24:51;;;;;;;1.90;1.17;;;;;;;;;;5091138;28;20416;-75
2023/10/20 13:27:18;;;;;;;1.42;0.90;;;;;;;;;;5130843;27;20404;-75
2023/10/20 13:29:45;;;;;;;1.80;1.00;;;;;;;;;;5098988;28;20427;-75
2023/10/20 13:32:12;;;;;;;1.45;1.10;;;;;;;;;;5104311;27;20899;-75
2023/10/20 13:34:39;;;;;;;1.20;0.90;;;;;;;;;;5116261;27;20452;-74
2023/10/20 13:37:05;;;;;;;1.40;1.00;;;;;;;;;;5116314;28;20412;-75
2023/10/20 13:39:32;;;;;;;1.67;1.10;;;;;;;;;;5099011;28;20458;-73
2023/10/20 13:41:58;;;;;;;1.63;1.13;;;;;;;;;;5122147;28;20484;-73
2023/10/20 13:44:24;;;;;;;1.30;1.00;;;;;;;;;;5088027;28;20488;-74
2023/10/20 13:46:51;;;;;;;2.08;1.20;;;;;;;;;;5087682;28;20449;-74
2023/10/20 13:49:17;;;;;;;1.97;1.23;;;;;;;;;;5100296;28;20769;-74
2023/10/20 13:51:43;;;;;;;1.50;1.10;;;;;;;;;;5082292;28;20450;-74
2023/10/20 13:54:09;;;;;;;1.60;1.20;;;;;;;;;;5110440;27;20924;-74
2023/10/20 13:56:35;;;;;;;1.70;1.10;;;;;;;;;;5089539;28;20404;-74
2023/10/20 13:59:01;;;;;;;1.95;1.10;;;;;;;;;;5102277;28;20428;-74
2023/10/20 14:01:27;;;;;;;1.83;1.13;;;;;;;;;;5086398;28;20401;-76
2023/10/20 14:03:53;;;;;;;2.85;1.10;;;;;;;;;;5080769;28;20422;-76
2023/10/20 14:06:20;;;;;;;2.30;1.17;;;;;;;;;;5100879;28;20485;-76
2023/10/20 14:11:05;;;;;;;1.52;1.10;;;;;;;;;;5132078;27;20356;-78
2023/10/20 14:13:32;;;;;;;1.75;1.02;;;;;;;;;;5104529;28;20459;-77
2023/10/20 14:16:00;;;;;;;1.92;1.10;;;;;;;;;;5092186;27;20447;-77
2023/10/20 14:18:26;;;;;;;2.95;1.40;;;;;;;;;;5097782;27;20418;-77
2023/10/20 14:20:53;;;;;;;2.40;1.00;;;;;;;;;;5100929;28;20422;-76
2023/10/20 14:23:21;;;;;;;2.80;1.20;;;;;;;;;;5087873;28;20893;-77
2023/10/20 14:25:55;;;;;;;1.55;1.00;;;6.60;99.90;;;;;;5116263;27;20412;-76
2023/10/20 14:28:22;;;;;;;1.70;1.00;;;;;;;;;;5099486;28;20409;-76
2023/10/20 14:30:53;;;;;;;1.73;1.20;;;;;;;;;;5105208;27;20417;-76
2023/10/20 14:33:19;;;;;;;2.55;1.30;;;;;;;;;;5134524;27;20392;-76
2023/10/20 14:35:45;;;;;;;1.55;1.00;;;;;;;;;;5126381;27;20414;-76
2023/10/20 14:38:11;;;;;;;1.25;1.00;;;;;;;;;;5128735;27;20398;-76
2023/10/20 14:40:37;;;;;;;2.25;0.98;;;;;;;;;;5096864;27;20418;-76
2023/10/20 14:43:04;;;;;;;3.10;1.10;;;;;;;;;;5127827;27;20815;-76
2023/10/20 14:45:30;;;;;;;3.33;1.20;;;;;;;;;;5123759;27;20411;-77
2023/10/20 14:47:56;;;;;;;3.30;1.10;;;;;;;;;;5124614;27;20415;-76